EST,Max TemperatureF,Mean TemperatureF,Min TemperatureF,Max Dew PointF,MeanDew PointF,Min DewpointF,Max Humidity, Mean Humidity, Min Humidity, Max Sea Level PressureIn, Mean Sea Level PressureIn, Min Sea Level PressureIn, Max VisibilityMiles, Mean VisibilityMiles, Min VisibilityMiles, Max Wind SpeedMPH, Mean Wind SpeedMPH, Max Gust SpeedMPH,PrecipitationIn, CloudCover, Events, WindDirDegrees
2012-1-1,71,53,34,58,47,35,100,70,40,30.22,30.13,30.03,10,9,6,22,7,28,T,2,Rain,215
2012-1-2,60,50,39,58,26,11,67,43,19,30.12,30.05,29.99,10,10,10,20,11,26,T,1,,291
2012-1-3,41,33,24,12,7,4,55,39,23,30.38,30.26,30.09,10,10,10,26,13,35,0.00,1,,305
2012-1-4,49,35,20,28,17,9,74,48,21,30.45,30.34,30.22,10,10,10,14,5,17,0.00,1,,217
2012-1-5,62,49,35,32,25,14,76,53,29,30.20,30.14,30.07,10,10,10,14,6,21,0.00,0,,277
2012-1-6,68,50,32,47,37,31,89,59,29,30.19,30.12,30.07,10,10,10,14,5,17,0.00,2,,218
2012-1-7,74,59,44,51,47,40,93,67,41,30.14,30.09,30.03,10,10,8,17,8,23,0.00,2,,240
2012-1-8,75,61,47,55,52,48,100,73,46,30.24,30.19,30.14,10,10,7,12,4,16,0.00,3,Fog,244
2012-1-9,78,63,48,57,53,48,100,70,39,30.21,30.15,30.09,10,10,5,16,6,21,0.00,4,Fog,236
2012-1-10,75,64,53,58,54,51,93,70,46,30.10,30.04,29.98,10,9,6,12,6,17,0.00,6,,180
2012-1-11,69,61,53,63,58,48,100,88,76,29.96,29.77,29.62,10,8,5,31,9,40,0.10,6,Rain,201
2012-1-12,66,56,45,54,46,41,86,67,48,29.86,29.76,29.69,10,10,10,28,13,39,0.00,4,,233
2012-1-13,60,47,34,38,20,15,60,42,24,30.16,30.04,29.78,10,10,9,25,13,37,0.00,3,,270
2012-1-14,53,43,32,25,18,13,59,39,19,30.30,30.23,30.17,10,10,10,17,9,23,0.00,1,,270
2012-1-15,57,47,36,28,25,22,64,45,26,30.53,30.38,30.20,10,10,5,18,9,25,0.00,0,,326
2012-1-16,58,45,31,42,34,26,92,66,40,30.59,30.50,30.39,10,10,6,15,5,20,0.00,5,,102
2012-1-17,70,58,45,54,50,42,93,73,53,30.36,30.22,30.06,10,10,8,21,8,30,T,7,Rain,223
2012-1-18,66,54,42,59,51,36,100,76,52,30.06,30.00,29.95,10,9,3,16,8,23,0.15,6,Rain,283
2012-1-19,58,46,34,42,36,29,93,68,43,30.22,30.14,30.06,10,10,7,13,5,15,0.00,2,Fog,101
2012-1-20,70,53,36,56,43,32,100,63,25,30.20,30.15,30.10,10,8,0,20,7,24,T,5,Fog,203
2012-1-21,70,61,52,57,54,52,100,80,59,30.09,30.05,29.95,10,9,2,24,12,33,0.20,6,Fog-Rain-Thunderstorm,222
2012-1-22,57,51,45,56,49,42,100,93,86,30.29,30.20,30.07,10,6,0,17,8,21,T,7,Fog-Rain,52
2012-1-23,69,57,44,63,53,44,100,89,78,30.26,30.14,30.06,10,4,0,16,7,20,T,8,Fog,130
2012-1-24,75,62,49,63,58,46,100,80,60,30.22,30.15,30.07,10,7,0,14,5,18,0.01,4,Fog,232
2012-1-25,70,55,40,56,48,41,100,72,44,30.30,30.23,30.18,10,10,8,10,4,16,0.00,2,,86
2012-1-26,77,65,53,64,60,55,100,80,60,30.17,30.05,29.88,10,9,5,23,10,30,T,6,Rain,163
2012-1-27,71,60,48,63,53,42,93,66,39,30.06,29.86,29.75,10,9,2,28,13,40,0.18,5,Rain,250
2012-1-28,69,55,41,42,38,30,89,58,27,30.19,30.12,30.05,10,10,10,16,4,22,0.00,0,,281
2012-1-29,61,49,37,39,24,10,76,45,14,30.39,30.31,30.20,10,10,10,18,7,26,0.00,1,,352
2012-1-30,65,48,31,35,25,15,70,43,15,30.49,30.41,30.36,10,10,10,13,3,17,0.00,0,,272
2012-1-31,69,51,32,43,34,21,92,55,17,30.46,30.40,30.34,10,10,10,15,4,20,0.00,2,Fog,203